createdAt,value
2023-03-17T00:01:41.736Z,100044.16
2023-03-17T00:04:12.628Z,100048.56
2023-03-17T00:06:40.733Z,100045.97
2023-03-17T00:09:15.545Z,100046.66
2023-03-17T00:11:43.398Z,100041.72
2023-03-17T00:14:10.275Z,100045.22
2023-03-17T00:16:39.747Z,100038.28
2023-03-17T00:19:06.487Z,100039.22
2023-03-17T00:21:34.315Z,100046.13
2023-03-17T00:24:01.652Z,100044.63
2023-03-17T00:26:28.692Z,100056.69
2023-03-17T00:28:55.273Z,100051.44
2023-03-17T00:31:27.679Z,100049.88
2023-03-17T00:33:55.342Z,100045.63
2023-03-17T00:36:24.912Z,100050.81
2023-03-17T00:38:52.795Z,100047.38
2023-03-17T00:41:20.173Z,100044.66
2023-03-17T00:43:46.793Z,100046.38
2023-03-17T00:46:16.667Z,100037.78
2023-03-17T00:48:45.534Z,100037.66
2023-03-17T00:51:12.747Z,100026.34
2023-03-17T00:53:39.897Z,100038.72
2023-03-17T00:56:13.510Z,100035.38
2023-03-17T00:58:40.106Z,100032.69
2023-03-17T01:01:07.168Z,100030.06
2023-03-17T01:03:34.354Z,100024.22
2023-03-17T01:06:02.786Z,100018.28
2023-03-17T01:08:30.292Z,100022.47
2023-03-17T01:10:57.596Z,100021.44
2023-03-17T01:13:24.655Z,100016.19
2023-03-17T01:15:52.506Z,100013.63
2023-03-17T01:18:22.732Z,100009.44
2023-03-17T01:20:50.240Z,100011.03
2023-03-17T01:23:17.885Z,100008.47
2023-03-17T01:25:45.310Z,100003.13
2023-03-17T01:28:18.046Z,100003.19
2023-03-17T01:30:46.965Z,100009.28
2023-03-17T01:33:14.570Z,100000.69
2023-03-17T01:35:43.616Z,99992.88
2023-03-17T01:38:10.670Z,99995.44
2023-03-17T01:40:57.432Z,99994.63
2023-03-17T01:43:28.085Z,99991.03
2023-03-17T01:46:29.351Z,99994.59
2023-03-17T01:49:09.379Z,99986.03
2023-03-17T01:51:44.092Z,99981.00
2023-03-17T01:54:22.330Z,99972.31
2023-03-17T01:56:51.737Z,99972.19
2023-03-17T01:59:23.783Z,99963.72
2023-03-17T02:01:54.666Z,99962.06
2023-03-17T02:04:22.031Z,99960.59
2023-03-17T02:06:58.115Z,99960.69
2023-03-17T02:09:27.063Z,99970.09
2023-03-17T02:11:54.552Z,99970.19
2023-03-17T02:14:21.534Z,99963.16
2023-03-17T02:16:48.601Z,99964.06
2023-03-17T02:19:16.114Z,99961.41
2023-03-17T02:21:45.184Z,99969.00
2023-03-17T02:24:37.657Z,99965.69
2023-03-17T02:27:13.581Z,99962.50
2023-03-17T02:29:41.495Z,99963.31
2023-03-17T02:32:28.192Z,99965.00
2023-03-17T02:35:16.202Z,99963.44
2023-03-17T02:38:02.641Z,99961.69
2023-03-17T02:40:49.278Z,99961.69
2023-03-17T02:43:36.021Z,99961.09
2023-03-17T02:46:08.228Z,99956.28
2023-03-17T02:48:36.581Z,99952.91
2023-03-17T02:51:04.213Z,99946.00
2023-03-17T02:53:31.144Z,99948.56
2023-03-17T02:55:58.244Z,99942.69
2023-03-17T02:58:24.748Z,99937.59
2023-03-17T03:00:51.565Z,99938.50
2023-03-17T03:03:18.023Z,99943.78
2023-03-17T03:05:44.757Z,99933.25
2023-03-17T03:08:11.562Z,99927.34
2023-03-17T03:10:37.999Z,99927.41
2023-03-17T03:13:04.571Z,99922.25
2023-03-17T03:15:31.095Z,99923.25
2023-03-17T03:17:57.876Z,99928.44
2023-03-17T03:20:24.559Z,99929.44
2023-03-17T03:22:50.998Z,99932.88
2023-03-17T03:25:17.768Z,99939.06
2023-03-17T03:27:44.552Z,99935.63
2023-03-17T03:30:11.610Z,99931.44
2023-03-17T03:32:38.075Z,99946.09
2023-03-17T03:35:04.932Z,99946.00
2023-03-17T03:37:31.595Z,99941.09
2023-03-17T03:39:58.114Z,99941.84
2023-03-17T03:42:24.737Z,99936.63
2023-03-17T03:44:51.478Z,99935.91
2023-03-17T03:47:17.892Z,99938.09
2023-03-17T03:49:44.496Z,99940.75
2023-03-17T03:52:11.394Z,99958.59
2023-03-17T03:54:38.356Z,99966.56
2023-03-17T03:57:05.814Z,99948.34
2023-03-17T03:59:32.428Z,99948.13
2023-03-17T04:01:59.322Z,99946.59
2023-03-17T04:04:25.991Z,99949.06
2023-03-17T04:06:52.613Z,99946.16
2023-03-17T04:09:19.184Z,99949.72
2023-03-17T04:11:45.974Z,99940.34
2023-03-17T04:14:12.654Z,99943.97
2023-03-17T04:16:42.178Z,99938.19
2023-03-17T04:19:09.681Z,99943.50
2023-03-17T04:21:36.687Z,99942.59
2023-03-17T04:24:05.214Z,99940.16
2023-03-17T04:26:32.161Z,99947.09
2023-03-17T04:28:58.985Z,99942.34
2023-03-17T04:31:25.745Z,99938.13
2023-03-17T04:33:52.676Z,99940.81
2023-03-17T04:36:21.684Z,99941.59
2023-03-17T04:38:48.128Z,99937.53
2023-03-17T04:41:15.407Z,99932.53
2023-03-17T04:43:42.006Z,99939.34
2023-03-17T04:46:09.210Z,99935.41
2023-03-17T04:48:35.991Z,99940.41
2023-03-17T04:51:02.793Z,99943.69
2023-03-17T04:53:34.244Z,99936.19
2023-03-17T04:56:00.828Z,99924.91
2023-03-17T04:58:31.021Z,99926.94
2023-03-17T05:00:58.371Z,99911.94
2023-03-17T05:03:27.652Z,99917.66
2023-03-17T05:05:55.560Z,99922.81
2023-03-17T05:08:22.438Z,99925.94
2023-03-17T05:10:48.889Z,99933.44
2023-03-17T05:13:15.879Z,99945.38
2023-03-17T05:15:49.412Z,99941.81
2023-03-17T05:18:16.557Z,99950.03
2023-03-17T05:20:43.060Z,99956.41
2023-03-17T05:23:09.931Z,99963.16
2023-03-17T05:25:36.796Z,99965.59
2023-03-17T05:28:03.780Z,99969.44
2023-03-17T05:30:30.521Z,99985.41
2023-03-17T05:32:57.576Z,99979.38
2023-03-17T05:35:24.085Z,99976.88
2023-03-17T05:37:51.078Z,99988.28
2023-03-17T05:40:17.833Z,99982.81
2023-03-17T05:42:44.460Z,99988.88
2023-03-17T05:45:11.651Z,99983.75
2023-03-17T05:47:38.116Z,99992.50
2023-03-17T05:50:05.834Z,99994.31
2023-03-17T05:52:32.404Z,99991.88
2023-03-17T05:54:59.113Z,99997.72
2023-03-17T05:57:26.280Z,99995.16
2023-03-17T05:59:52.750Z,99994.38
2023-03-17T06:02:19.571Z,99995.34
2023-03-17T06:04:46.446Z,100000.59
2023-03-17T06:07:13.215Z,100004.91
2023-03-17T06:09:40.133Z,100007.53
2023-03-17T06:12:07.480Z,99999.69
2023-03-17T06:14:34.245Z,99997.19
2023-03-17T06:17:01.662Z,99996.44
2023-03-17T06:19:28.272Z,99999.84
2023-03-17T06:21:54.775Z,99990.56
2023-03-17T06:24:21.709Z,99994.69
2023-03-17T06:26:48.350Z,99989.38
2023-03-17T06:29:15.724Z,99990.31
2023-03-17T06:31:42.165Z,99997.16
2023-03-17T06:34:08.603Z,99990.28
2023-03-17T06:36:36.965Z,99989.38
2023-03-17T06:39:05.065Z,99988.44
2023-03-17T06:41:31.860Z,99985.78
2023-03-17T06:43:58.405Z,99982.25
2023-03-17T06:46:24.957Z,99981.28
2023-03-17T06:48:51.445Z,99985.63
2023-03-17T06:51:18.033Z,99986.28
2023-03-17T06:53:44.676Z,99985.28
2023-03-17T06:56:23.531Z,99983.31
2023-03-17T06:58:55.578Z,99980.56
2023-03-17T07:01:22.369Z,99979.47
2023-03-17T07:03:49.862Z,99987.84
2023-03-17T07:06:16.647Z,100000.38
2023-03-17T07:08:43.244Z,99993.25
2023-03-17T07:11:09.827Z,99977.44
2023-03-17T07:13:38.684Z,99985.06
2023-03-17T07:16:06.959Z,99992.34
2023-03-17T07:18:34.239Z,99993.84
2023-03-17T07:21:01.928Z,99997.63
2023-03-17T07:23:29.397Z,99993.16
2023-03-17T07:25:57.433Z,99987.00
2023-03-17T07:28:24.372Z,99982.44
2023-03-17T07:30:51.372Z,99983.94
2023-03-17T07:33:21.142Z,99981.81
2023-03-17T07:35:49.456Z,99988.84
2023-03-17T07:38:17.873Z,99985.69
2023-03-17T07:40:47.562Z,99988.19
2023-03-17T07:43:14.852Z,99982.00
2023-03-17T07:45:41.456Z,99982.53
2023-03-17T07:48:08.575Z,99973.78
2023-03-17T07:50:37.036Z,99981.16
2023-03-17T07:53:04.585Z,99988.06
2023-03-17T07:55:32.782Z,99989.72
2023-03-17T07:57:59.926Z,100000.66
2023-03-17T08:00:27.831Z,100001.34
2023-03-17T08:03:08.877Z,99997.69
2023-03-17T08:05:35.816Z,99999.72
2023-03-17T08:08:02.421Z,100001.59
2023-03-17T08:10:29.559Z,100002.13
2023-03-17T08:12:56.443Z,100013.84
2023-03-17T08:15:22.994Z,100007.97
2023-03-17T08:17:49.597Z,99996.47
2023-03-17T08:20:16.340Z,99989.09
2023-03-17T08:22:43.990Z,99979.75
2023-03-17T08:25:11.709Z,99983.69
2023-03-17T08:27:38.563Z,99977.47
2023-03-17T08:30:05.801Z,99980.47
2023-03-17T08:32:32.979Z,99977.03
2023-03-17T08:35:00.329Z,99979.63
2023-03-17T08:37:26.932Z,99980.16
2023-03-17T08:39:53.572Z,99975.88
2023-03-17T08:42:20.190Z,99976.53
2023-03-17T08:44:47.246Z,99962.09
2023-03-17T08:47:13.682Z,99963.59
2023-03-17T08:49:40.252Z,99957.72
2023-03-17T08:52:06.887Z,99963.41
2023-03-17T08:54:35.001Z,99965.75
2023-03-17T08:57:01.770Z,99965.69
2023-03-17T08:59:28.694Z,99961.41
2023-03-17T09:01:55.813Z,99955.41
2023-03-17T09:04:23.326Z,99957.69
2023-03-17T09:07:02.713Z,99960.41
2023-03-17T09:09:31.070Z,99963.50
2023-03-17T09:11:57.743Z,99966.53
2023-03-17T09:14:24.674Z,99967.16
2023-03-17T09:16:51.342Z,99969.69
2023-03-17T09:19:17.888Z,99960.09
2023-03-17T09:21:44.865Z,99950.75
2023-03-17T09:24:11.704Z,99948.38
2023-03-17T09:26:38.280Z,99949.06
2023-03-17T09:29:05.270Z,99945.75
2023-03-17T09:31:32.923Z,99932.41
2023-03-17T09:33:59.960Z,99926.50
2023-03-17T09:36:26.460Z,99922.06
2023-03-17T09:38:53.028Z,99915.53
2023-03-17T09:41:25.799Z,99915.06
2023-03-17T09:43:58.386Z,99905.16
2023-03-17T09:47:08.422Z,99907.56
2023-03-17T09:49:45.963Z,99901.81
2023-03-17T09:52:18.821Z,99906.25
2023-03-17T09:54:46.620Z,99911.88
2023-03-17T09:57:30.124Z,99910.84
2023-03-17T10:00:11.544Z,99917.47
2023-03-17T10:02:38.152Z,99897.41
2023-03-17T10:05:17.096Z,99908.66
2023-03-17T10:07:54.399Z,99896.75
2023-03-17T10:10:56.920Z,99897.34
2023-03-17T10:13:38.990Z,99888.72
2023-03-17T10:16:19.360Z,99888.13
2023-03-17T10:18:58.465Z,99887.00
2023-03-17T10:21:37.529Z,99891.41
2023-03-17T10:24:05.164Z,99884.22
2023-03-17T10:26:39.752Z,99885.44
2023-03-17T10:29:13.751Z,99884.66
2023-03-17T10:31:40.624Z,99877.72
2023-03-17T10:34:29.278Z,99869.19
2023-03-17T10:37:12.830Z,99868.78
2023-03-17T10:39:48.251Z,99866.13
2023-03-17T10:42:29.545Z,99856.19
2023-03-17T10:44:58.432Z,99875.84
2023-03-17T10:47:34.685Z,99873.59
2023-03-17T10:50:28.862Z,99869.34
2023-03-17T10:53:18.283Z,99862.56
2023-03-17T10:55:50.600Z,99865.66
2023-03-17T10:58:20.253Z,99863.09
2023-03-17T11:01:03.680Z,99855.56
2023-03-17T11:03:35.956Z,99852.50
2023-03-17T11:06:12.247Z,99863.09
2023-03-17T11:08:56.802Z,99862.41
2023-03-17T11:11:26.299Z,99853.09
2023-03-17T11:14:03.362Z,99857.31
2023-03-17T11:16:32.900Z,99852.97
2023-03-17T11:19:02.269Z,99854.94
2023-03-17T11:21:33.889Z,99854.16
2023-03-17T11:24:09.406Z,99853.44
2023-03-17T11:26:47.405Z,99838.28
2023-03-17T11:29:20.689Z,99848.78
2023-03-17T11:32:13.736Z,99847.41
2023-03-17T11:34:58.920Z,99841.03
2023-03-17T11:38:03.563Z,99842.56
2023-03-17T11:40:35.262Z,99848.34
2023-03-17T11:43:08.054Z,99838.13
2023-03-17T11:45:50.474Z,99835.59
2023-03-17T11:48:30.306Z,99823.16
2023-03-17T11:51:06.665Z,99820.19
2023-03-17T11:53:59.588Z,99827.59
2023-03-17T11:56:40.792Z,99820.06
2023-03-17T11:59:18.476Z,99809.91
2023-03-17T12:02:08.082Z,99816.91
2023-03-17T12:04:43.546Z,99813.91
2023-03-17T12:07:33.076Z,99803.16
2023-03-17T12:10:22.858Z,99804.00
2023-03-17T12:12:57.952Z,99804.72
2023-03-17T12:15:39.331Z,99795.25
2023-03-17T12:18:13.141Z,99792.94
2023-03-17T12:21:15.825Z,99794.97
2023-03-17T12:24:01.750Z,99792.09
2023-03-17T12:26:37.173Z,99795.38
2023-03-17T12:29:24.906Z,99800.78
2023-03-17T12:32:12.650Z,99800.16
2023-03-17T12:34:51.715Z,99802.94
2023-03-17T12:37:19.465Z,99800.97
2023-03-17T12:39:55.562Z,99791.03
2023-03-17T12:42:35.583Z,99788.00
2023-03-17T12:45:26.246Z,99788.00
2023-03-17T12:48:16.780Z,99778.13
2023-03-17T12:50:46.380Z,99787.94
2023-03-17T12:53:29.505Z,99777.69
2023-03-17T12:56:02.404Z,99781.03
2023-03-17T12:58:43.816Z,99767.75
2023-03-17T13:01:25.390Z,99759.66
2023-03-17T13:04:07.264Z,99758.16
2023-03-17T13:06:42.551Z,99745.72
2023-03-17T13:09:34.038Z,99756.78
2023-03-17T13:12:02.170Z,99758.75
2023-03-17T13:14:43.106Z,99756.34
2023-03-17T13:17:16.597Z,99753.44
2023-03-17T13:19:56.837Z,99747.63
2023-03-17T13:22:32.568Z,99735.38
2023-03-17T13:25:12.644Z,99740.06
2023-03-17T13:27:39.086Z,99735.69
2023-03-17T13:30:25.731Z,99737.94
2023-03-17T13:33:25.735Z,99726.97
2023-03-17T13:36:14.293Z,99724.69
2023-03-17T13:39:18.614Z,99721.25
2023-03-17T13:42:15.692Z,99718.38
2023-03-17T13:45:01.080Z,99712.44
2023-03-17T13:47:40.124Z,99706.88
2023-03-17T13:50:22.269Z,99705.75
2023-03-17T13:52:54.653Z,99711.03
2023-03-17T13:55:24.120Z,99718.16
2023-03-17T13:57:57.290Z,99716.88
2023-03-17T14:00:28.866Z,99716.13
2023-03-17T14:03:03.744Z,99712.03
2023-03-17T14:05:37.923Z,99715.16
2023-03-17T14:08:23.557Z,99710.03
2023-03-17T14:10:55.739Z,99704.66
2023-03-17T14:13:25.566Z,99713.78
2023-03-17T14:16:14.059Z,99709.53
2023-03-17T14:18:47.421Z,99707.16
2023-03-17T14:21:23.963Z,99705.44
2023-03-17T14:23:58.803Z,99701.84
2023-03-17T14:26:29.014Z,99697.25
2023-03-17T14:28:59.156Z,99696.25
2023-03-17T14:31:28.110Z,99685.13
2023-03-17T14:33:56.958Z,99679.81
2023-03-17T14:36:24.971Z,99686.28
2023-03-17T14:38:53.721Z,99684.19
2023-03-17T14:41:25.961Z,99684.13
2023-03-17T14:43:56.898Z,99688.44
2023-03-17T14:46:23.660Z,99680.72
2023-03-17T14:48:56.912Z,99689.22
2023-03-17T14:51:28.492Z,99686.59
2023-03-17T14:54:00.113Z,99673.03
2023-03-17T14:56:35.516Z,99676.75
2023-03-17T14:59:08.094Z,99676.97
2023-03-17T15:01:42.864Z,99675.03
2023-03-17T15:04:17.736Z,99675.28
2023-03-17T15:06:53.614Z,99671.47
2023-03-17T15:09:34.970Z,99668.41
2023-03-17T15:12:07.091Z,99662.31
2023-03-17T15:14:38.629Z,99668.84
2023-03-17T15:17:15.792Z,99664.38
2023-03-17T15:19:48.004Z,99670.38
2023-03-17T15:22:31.858Z,99664.66
2023-03-17T15:25:02.303Z,99665.38
2023-03-17T15:27:31.263Z,99659.84
2023-03-17T15:29:58.137Z,99652.84
2023-03-17T15:32:27.361Z,99649.25
2023-03-17T15:34:56.866Z,99645.38
2023-03-17T15:37:32.148Z,99648.19
2023-03-17T15:40:00.170Z,99648.25
2023-03-17T15:42:32.924Z,99657.16
2023-03-17T15:45:03.528Z,99653.34
2023-03-17T15:47:33.803Z,99649.75
2023-03-17T15:50:12.046Z,99650.59
2023-03-17T15:52:38.564Z,99643.66
2023-03-17T15:55:18.362Z,99644.38
2023-03-17T15:57:53.916Z,99642.31
2023-03-17T16:00:23.711Z,99645.44
2023-03-17T16:02:56.140Z,99647.47
2023-03-17T16:05:29.250Z,99642.19
2023-03-17T16:07:56.232Z,99643.97
2023-03-17T16:10:28.645Z,99638.59
2023-03-17T16:12:55.428Z,99645.16
2023-03-17T16:15:31.659Z,99651.47
2023-03-17T16:18:00.434Z,99652.47
2023-03-17T16:20:32.616Z,99655.56
2023-03-17T16:23:06.929Z,99665.97
2023-03-17T16:25:34.213Z,99662.72
2023-03-17T16:28:05.070Z,99651.44
2023-03-17T16:30:34.438Z,99670.59
2023-03-17T16:33:03.598Z,99667.03
2023-03-17T16:35:30.333Z,99664.75
2023-03-17T16:37:56.963Z,99671.69
2023-03-17T16:40:33.050Z,99680.44
2023-03-17T16:42:59.542Z,99677.34
2023-03-17T16:45:28.020Z,99672.28
2023-03-17T16:47:55.957Z,99677.38
2023-03-17T16:50:24.976Z,99677.28
2023-03-17T16:52:51.915Z,99683.81
2023-03-17T16:55:20.798Z,99675.81
2023-03-17T16:57:50.393Z,99687.28
2023-03-17T17:00:27.113Z,99686.53
2023-03-17T17:02:54.254Z,99692.34
2023-03-17T17:05:29.778Z,99697.69
2023-03-17T17:07:57.308Z,99693.38
2023-03-17T17:10:26.336Z,99695.38
2023-03-17T17:12:53.543Z,99692.56
2023-03-17T17:15:21.844Z,99699.81
2023-03-17T17:17:57.214Z,99693.91
2023-03-17T17:20:31.111Z,99698.75
2023-03-17T17:22:59.713Z,99703.69
2023-03-17T17:25:27.142Z,99701.16
2023-03-17T17:27:54.920Z,99708.63
2023-03-17T17:30:28.166Z,99696.63
2023-03-17T17:32:57.596Z,99700.53
2023-03-17T17:35:26.092Z,99710.19
2023-03-17T17:37:53.714Z,99711.53
2023-03-17T17:40:24.369Z,99703.97
2023-03-17T17:42:52.121Z,99705.94
2023-03-17T17:45:20.124Z,99702.81
2023-03-17T17:47:47.183Z,99704.16
2023-03-17T17:50:21.063Z,99708.94
2023-03-17T17:52:48.017Z,99711.56
2023-03-17T17:55:15.181Z,99712.19
2023-03-17T17:57:41.981Z,99707.25
2023-03-17T18:00:12.676Z,99714.72
2023-03-17T18:02:39.216Z,99713.66
2023-03-17T18:05:08.085Z,99714.97
2023-03-17T18:07:35.717Z,99725.31
2023-03-17T18:10:02.846Z,99717.78
2023-03-17T18:12:29.428Z,99716.84
2023-03-17T18:14:56.080Z,99722.47
2023-03-17T18:17:22.950Z,99728.78
2023-03-17T18:19:50.449Z,99730.19
2023-03-17T18:22:17.192Z,99727.38
2023-03-17T18:24:44.089Z,99733.94
2023-03-17T18:27:11.735Z,99729.44
2023-03-17T18:29:38.874Z,99730.47
2023-03-17T18:32:06.937Z,99739.56
2023-03-17T18:34:43.268Z,99741.44
2023-03-17T18:37:15.187Z,99750.47
2023-03-17T18:39:42.494Z,99758.69
2023-03-17T18:42:09.702Z,99750.75
2023-03-17T18:44:36.815Z,99751.38
2023-03-17T18:47:04.140Z,99749.91
2023-03-17T18:49:30.858Z,99746.13
2023-03-17T18:51:59.379Z,99750.19
2023-03-17T18:54:27.715Z,99750.56
2023-03-17T18:56:54.895Z,99751.09
2023-03-17T18:59:21.538Z,99751.94
2023-03-17T19:01:48.009Z,99759.09
2023-03-17T19:04:14.592Z,99755.13
2023-03-17T19:06:42.555Z,99747.53
2023-03-17T19:09:10.504Z,99745.38
2023-03-17T19:11:39.198Z,99746.97
2023-03-17T19:14:07.457Z,99747.97
2023-03-17T19:16:35.114Z,99747.09
2023-03-17T19:19:02.567Z,99746.59
2023-03-17T19:21:29.097Z,99749.69
2023-03-17T19:23:58.983Z,99747.34
2023-03-17T19:26:25.511Z,99761.59
2023-03-17T19:28:52.188Z,99757.19
2023-03-17T19:31:18.842Z,99742.75
2023-03-17T19:33:45.536Z,99747.25
2023-03-17T19:36:13.007Z,99755.28
2023-03-17T19:38:40.994Z,99754.69
2023-03-17T19:41:07.970Z,99761.03
2023-03-17T19:43:40.710Z,99758.94
2023-03-17T19:46:09.255Z,99759.16
2023-03-17T19:48:36.643Z,99765.44
2023-03-17T19:51:03.386Z,99763.44
2023-03-17T19:53:29.924Z,99756.16
2023-03-17T19:55:56.879Z,99763.84
2023-03-17T19:58:23.734Z,99762.25
2023-03-17T20:00:50.568Z,99767.78
2023-03-17T20:03:17.191Z,99769.19
2023-03-17T20:05:45.721Z,99781.88
2023-03-17T20:08:12.295Z,99777.66
2023-03-17T20:10:39.200Z,99782.78
2023-03-17T20:13:06.356Z,99787.59
2023-03-17T20:15:33.598Z,99781.53
2023-03-17T20:18:00.705Z,99783.28
2023-03-17T20:20:27.448Z,99782.81
2023-03-17T20:22:54.190Z,99785.50
2023-03-17T20:25:21.683Z,99787.44
2023-03-17T20:27:48.412Z,99784.16
2023-03-17T20:30:15.276Z,99788.69
2023-03-17T20:32:41.768Z,99789.53
2023-03-17T20:35:11.724Z,99792.56
2023-03-17T20:37:38.733Z,99788.78
2023-03-17T20:40:08.159Z,99790.91
2023-03-17T20:42:34.622Z,99787.34
2023-03-17T20:45:03.317Z,99780.25
2023-03-17T20:47:29.815Z,99782.47
2023-03-17T20:49:58.596Z,99791.88
2023-03-17T20:52:30.285Z,99786.31
2023-03-17T20:54:59.349Z,99787.50
2023-03-17T20:57:26.237Z,99780.75
2023-03-17T20:59:52.858Z,99789.25
2023-03-17T21:02:19.520Z,99787.00
2023-03-17T21:04:48.583Z,99784.19
2023-03-17T21:07:17.092Z,99788.84
2023-03-17T21:09:44.161Z,99780.94
2023-03-17T21:12:16.200Z,99781.84
2023-03-17T21:14:43.035Z,99787.06
2023-03-17T21:17:10.786Z,99786.16
2023-03-17T21:19:38.165Z,99789.03
2023-03-17T21:22:05.627Z,99793.72
2023-03-17T21:24:35.007Z,99797.03
2023-03-17T21:27:05.046Z,99799.56
2023-03-17T21:29:33.190Z,99800.03
2023-03-17T21:32:00.978Z,99798.94
2023-03-17T21:34:29.873Z,99811.34
2023-03-17T21:36:57.171Z,99806.22
2023-03-17T21:39:24.845Z,99808.31
2023-03-17T21:41:51.753Z,99803.94
2023-03-17T21:44:19.251Z,99799.72
2023-03-17T21:46:47.856Z,99803.94
2023-03-17T21:49:16.304Z,99795.56
2023-03-17T21:51:44.328Z,99794.88
2023-03-17T21:54:10.958Z,99786.34
2023-03-17T21:56:38.966Z,99790.00
2023-03-17T21:59:10.958Z,99789.69
2023-03-17T22:01:38.932Z,99787.59
2023-03-17T22:04:05.636Z,99782.47
2023-03-17T22:06:32.352Z,99789.59
2023-03-17T22:08:58.796Z,99786.59
2023-03-17T22:11:25.663Z,99795.78
2023-03-17T22:13:52.274Z,99790.91
2023-03-17T22:16:19.661Z,99792.75
2023-03-17T22:18:47.475Z,99796.28
2023-03-17T22:21:14.660Z,99799.47
2023-03-17T22:23:42.320Z,99803.13
2023-03-17T22:26:12.337Z,99808.59
2023-03-17T22:28:39.374Z,99811.97
2023-03-17T22:31:14.691Z,99809.19
2023-03-17T22:33:41.903Z,99813.13
2023-03-17T22:36:09.354Z,99825.09
2023-03-17T22:38:36.301Z,99826.19
2023-03-17T22:41:06.410Z,99828.84
2023-03-17T22:43:33.024Z,99828.09
2023-03-17T22:45:59.650Z,99825.41
2023-03-17T22:48:26.664Z,99826.25
2023-03-17T22:50:53.281Z,99829.00
2023-03-17T22:53:19.815Z,99828.31
2023-03-17T22:55:46.604Z,99830.00
2023-03-17T22:58:13.158Z,99827.31
2023-03-17T23:00:40.455Z,99830.50
2023-03-17T23:03:07.186Z,99830.22
2023-03-17T23:05:33.884Z,99832.94
2023-03-17T23:08:00.565Z,99829.16
2023-03-17T23:10:28.543Z,99837.25
2023-03-17T23:12:55.399Z,99840.38
2023-03-17T23:15:22.354Z,99842.16
2023-03-17T23:17:48.935Z,99837.69
2023-03-17T23:20:15.818Z,99846.94
2023-03-17T23:22:42.454Z,99851.31
2023-03-17T23:25:09.924Z,99848.50
2023-03-17T23:27:36.646Z,99854.13
2023-03-17T23:30:04.312Z,99856.97
2023-03-17T23:32:31.901Z,99865.22
2023-03-17T23:34:58.493Z,99871.09
2023-03-17T23:37:25.100Z,99878.28
2023-03-17T23:39:51.598Z,99880.97
2023-03-17T23:42:18.255Z,99884.56
2023-03-17T23:44:45.031Z,99887.03
2023-03-17T23:47:11.910Z,99889.72
2023-03-17T23:49:39.052Z,99889.56
2023-03-17T23:52:05.785Z,99896.00
2023-03-17T23:54:32.951Z,99893.16
2023-03-17T23:57:00.111Z,99892.75
2023-03-17T23:59:26.882Z,99891.84
